aviador You're here:

KAAO Decoded Metar

WICHITA/JABARA in KS, USA
Report Time2018-01-22 19:54:00
UTC Time2018-01-22 20:05:22
Flight Rules mvfr MVFR
Wind310° at 24 Gusting to 34 kt
W.Decomp.*RWY 36: 13.4 kt HW 19.9 kt LCW
W.Rank310° ranks 19
Current wind is above 310° avg. (9.2)
Visibility9999 m
Phenomena:N/A
Clouds:Broken 021 Hf
Overcast 028 Hf
Expected CloudBase > 1,200 ft AGL from Temp-Dew spread
Ceiling2,100 ft
Temp02°C (ISA -10)
Dew Point-1°C (81% RH)
AAT-8.8°C
QNH1006 hPa
Density Alt512 ft
Elevation1,424 ft
Report Wrong Elevation
Raw Report
KAAO 221954Z AUTO 31024G34KT 10SM BKN021 OVC028 02/M01 A2970 RMK
AO2 PK WND 32034/1953 UPB1859E16SNB1858E1859B07E08B16E40
SLP066 P0000 T00221006=

Extra information for KAAO:More info

Metar Taf Metar & Taf Last 4 Metars F.Rules Stats Wind Profile Meteogram Temp Stats Airport Information Weather charts Add Link Nearby VenuesMetar ALERT Operation Metar Decoded Social comments

AIRNAV info for KAAO